createdAt,value
2018-09-18T00:00:18.817Z,14.89
2018-09-18T00:01:27.471Z,15.05
2018-09-18T00:02:36.105Z,14.97
2018-09-18T00:03:45.290Z,15.02
2018-09-18T00:04:53.932Z,15
2018-09-18T00:06:02.583Z,14.92
2018-09-18T00:07:11.732Z,14.9
2018-09-18T00:08:20.915Z,14.9
2018-09-18T00:09:29.557Z,14.9
2018-09-18T00:10:38.202Z,14.9
2018-09-18T00:11:46.839Z,14.87
2018-09-18T00:12:55.485Z,14.9
2018-09-18T00:14:04.135Z,14.85
2018-09-18T00:15:12.782Z,14.93
2018-09-18T00:16:21.428Z,14.96
2018-09-18T00:17:30.065Z,14.9
2018-09-18T00:18:38.718Z,14.92
2018-09-18T00:19:47.359Z,14.85
2018-09-18T00:20:56.274Z,14.87
2018-09-18T00:22:04.910Z,14.92
2018-09-18T00:23:13.559Z,14.87
2018-09-18T00:24:22.197Z,14.79
2018-09-18T00:25:30.851Z,14.79
2018-09-18T00:26:39.489Z,14.92
2018-09-18T00:27:48.395Z,14.89
2018-09-18T00:28:57.039Z,14.73
2018-09-18T00:30:05.960Z,14.68
2018-09-18T00:31:14.605Z,14.78
2018-09-18T00:32:23.246Z,14.67
2018-09-18T00:33:32.152Z,14.71
2018-09-18T00:34:40.793Z,14.58
2018-09-18T00:35:49.446Z,14.55
2018-09-18T00:36:58.085Z,14.53
2018-09-18T00:38:06.735Z,14.49
2018-09-18T00:39:15.373Z,14.45
2018-09-18T00:40:24.026Z,14.53
2018-09-18T00:41:32.669Z,14.44
2018-09-18T00:42:41.323Z,14.44
2018-09-18T00:43:49.956Z,14.53
2018-09-18T00:44:58.607Z,14.59
2018-09-18T00:46:07.248Z,14.53
2018-09-18T00:47:15.890Z,14.45
2018-09-18T00:48:24.545Z,14.53
2018-09-18T00:49:33.185Z,14.61
2018-09-18T00:50:41.824Z,14.53
2018-09-18T00:51:50.467Z,14.49
2018-09-18T00:52:59.108Z,14.52
2018-09-18T00:54:07.765Z,14.58
2018-09-18T00:55:16.404Z,14.58
2018-09-18T00:56:25.051Z,14.62
2018-09-18T00:57:33.686Z,14.59
2018-09-18T00:58:42.341Z,14.7
2018-09-18T00:59:50.982Z,14.67
2018-09-18T01:00:59.629Z,14.67
2018-09-18T01:02:08.531Z,14.63
2018-09-18T01:03:17.182Z,14.71
2018-09-18T01:04:25.826Z,14.73
2018-09-18T01:05:34.471Z,14.7
2018-09-18T01:06:43.374Z,14.73
2018-09-18T01:07:52.022Z,14.74
2018-09-18T01:09:00.671Z,14.73
2018-09-18T01:10:11.429Z,14.73
2018-09-18T01:11:20.075Z,14.78
2018-09-18T01:12:28.708Z,14.77
2018-09-18T01:13:37.357Z,14.82
2018-09-18T01:14:45.997Z,14.9
2018-09-18T01:15:54.649Z,14.82
2018-09-18T01:17:03.284Z,14.93
2018-09-18T01:18:11.932Z,14.9
2018-09-18T01:19:20.571Z,14.86
2018-09-18T01:20:29.224Z,14.94
2018-09-18T01:21:37.908Z,14.9
2018-09-18T01:22:46.507Z,15.05
2018-09-18T01:23:55.149Z,15.02
2018-09-18T01:25:04.078Z,14.92
2018-09-18T01:26:12.718Z,14.99
2018-09-18T01:27:21.360Z,15.02
2018-09-18T01:28:29.999Z,15.07
2018-09-18T01:29:38.636Z,15.1
2018-09-18T01:30:47.295Z,15.12
2018-09-18T01:31:55.933Z,15.04
2018-09-18T01:33:04.583Z,15.07
2018-09-18T01:34:13.219Z,15.07
2018-09-18T01:35:21.872Z,15.15
2018-09-18T01:36:30.510Z,15.14
2018-09-18T01:37:39.159Z,15.1
2018-09-18T01:38:48.059Z,15.08
2018-09-18T01:39:56.711Z,15
2018-09-18T01:41:05.613Z,15.05
2018-09-18T01:42:14.264Z,15.17
2018-09-18T01:43:22.905Z,15.08
2018-09-18T01:44:31.551Z,15.18
2018-09-18T01:45:40.199Z,15.17
2018-09-18T01:46:48.847Z,15.14
2018-09-18T01:47:57.494Z,15.1
2018-09-18T01:49:06.132Z,15.1
2018-09-18T01:50:14.777Z,15.12
2018-09-18T01:51:23.423Z,15.17
2018-09-18T01:52:32.073Z,15.05
2018-09-18T01:53:40.971Z,15.1
2018-09-18T01:54:49.623Z,15
2018-09-18T01:55:58.268Z,15
2018-09-18T01:57:06.915Z,15.04
2018-09-18T01:58:15.556Z,14.99
2018-09-18T01:59:24.204Z,15.04
2018-09-18T02:00:32.848Z,15
2018-09-18T02:01:42.026Z,15.02
2018-09-18T02:02:50.664Z,14.96
2018-09-18T02:03:59.310Z,15.02
2018-09-18T02:05:07.953Z,15.02
2018-09-18T02:06:16.592Z,15.02
2018-09-18T02:07:25.510Z,15
2018-09-18T02:08:34.149Z,14.93
2018-09-18T02:09:42.796Z,14.9
2018-09-18T02:10:51.433Z,15.08
2018-09-18T02:12:00.087Z,15.05
2018-09-18T02:13:08.731Z,14.93
2018-09-18T02:14:17.642Z,14.87
2018-09-18T02:15:26.542Z,14.92
2018-09-18T02:16:35.191Z,14.9
2018-09-18T02:17:43.833Z,14.85
2018-09-18T02:18:52.478Z,14.87
2018-09-18T02:20:01.121Z,14.86
2018-09-18T02:21:09.765Z,14.92
2018-09-18T02:22:18.409Z,14.86
2018-09-18T02:23:27.057Z,14.79
2018-09-18T02:24:35.705Z,14.89
2018-09-18T02:25:44.345Z,14.93
2018-09-18T02:26:52.990Z,14.93
2018-09-18T02:28:01.632Z,14.81
2018-09-18T02:29:10.283Z,14.9
2018-09-18T02:30:18.930Z,14.85
2018-09-18T02:31:27.843Z,14.81
2018-09-18T02:32:36.500Z,14.79
2018-09-18T02:33:45.410Z,14.74
2018-09-18T02:34:54.059Z,14.86
2018-09-18T02:36:02.706Z,14.9
2018-09-18T02:37:11.348Z,14.82
2018-09-18T02:38:20.277Z,14.92
2018-09-18T02:39:29.179Z,14.9
2018-09-18T02:40:37.827Z,14.87
2018-09-18T02:41:46.736Z,14.89
2018-09-18T02:42:55.378Z,14.96
2018-09-18T02:44:04.296Z,14.92
2018-09-18T02:45:13.202Z,14.89
2018-09-18T02:46:21.851Z,14.86
2018-09-18T02:47:30.751Z,14.85
2018-09-18T02:48:39.666Z,14.82
2018-09-18T02:49:48.306Z,14.78
2018-09-18T02:50:56.955Z,14.81
2018-09-18T02:52:05.592Z,14.74
2018-09-18T02:53:14.509Z,14.7
2018-09-18T02:54:23.157Z,14.73
2018-09-18T02:55:32.066Z,14.7
2018-09-18T02:56:40.704Z,14.68
2018-09-18T02:57:49.356Z,14.71
2018-09-18T02:58:58.004Z,14.68
2018-09-18T03:00:06.925Z,14.71
2018-09-18T03:01:15.566Z,14.71
2018-09-18T03:02:24.202Z,14.77
2018-09-18T03:03:32.896Z,14.71
2018-09-18T03:04:41.500Z,14.71
2018-09-18T03:05:50.421Z,14.68
2018-09-18T03:06:59.059Z,14.68
2018-09-18T03:08:07.707Z,14.82
2018-09-18T03:09:16.354Z,14.85
2018-09-18T03:10:25.003Z,14.78
2018-09-18T03:11:33.641Z,14.77
2018-09-18T03:12:42.556Z,14.71
2018-09-18T03:13:51.201Z,14.82
2018-09-18T03:14:59.855Z,14.73
2018-09-18T03:16:08.497Z,14.78
2018-09-18T03:17:17.398Z,14.77
2018-09-18T03:18:26.569Z,14.77
2018-09-18T03:19:35.209Z,14.87
2018-09-18T03:20:43.865Z,14.77
2018-09-18T03:21:52.505Z,14.73
2018-09-18T03:23:01.151Z,14.73
2018-09-18T03:24:09.786Z,14.73
2018-09-18T03:25:18.440Z,14.74
2018-09-18T03:26:27.083Z,14.7
2018-09-18T03:27:35.729Z,14.7
2018-09-18T03:28:44.363Z,14.66
2018-09-18T03:29:53.010Z,14.63
2018-09-18T03:31:02.215Z,14.63
2018-09-18T03:32:11.650Z,14.59
2018-09-18T03:33:20.295Z,14.56
2018-09-18T03:34:28.942Z,14.63
2018-09-18T03:35:37.616Z,14.55
2018-09-18T03:36:46.242Z,14.61
2018-09-18T03:37:55.160Z,14.55
2018-09-18T03:39:03.795Z,14.58
2018-09-18T03:40:12.446Z,14.58
2018-09-18T03:41:21.086Z,14.53
2018-09-18T03:42:29.739Z,14.53
2018-09-18T03:43:38.376Z,14.56
2018-09-18T03:44:47.021Z,14.56
2018-09-18T03:45:55.664Z,14.49
2018-09-18T03:47:04.571Z,14.56
2018-09-18T03:48:13.208Z,14.52
2018-09-18T03:49:21.851Z,14.55
2018-09-18T03:50:30.493Z,14.56
2018-09-18T03:51:39.145Z,14.55
2018-09-18T03:52:47.788Z,14.53
2018-09-18T03:53:56.438Z,14.48
2018-09-18T03:55:05.622Z,14.56
2018-09-18T03:56:14.269Z,14.45
2018-09-18T03:57:22.917Z,14.48
2018-09-18T03:58:31.831Z,14.38
2018-09-18T03:59:40.476Z,14.38
2018-09-18T04:00:49.378Z,14.45
2018-09-18T04:01:58.029Z,14.4
2018-09-18T04:03:06.674Z,14.41
2018-09-18T04:04:15.322Z,14.37
2018-09-18T04:05:23.966Z,14.28
2018-09-18T04:06:32.614Z,14.33
2018-09-18T04:07:41.256Z,14.23
2018-09-18T04:08:49.908Z,14.25
2018-09-18T04:09:58.546Z,14.22
2018-09-18T04:11:07.192Z,14.25
2018-09-18T04:12:15.837Z,14.22
2018-09-18T04:13:24.491Z,14.22
2018-09-18T04:14:33.140Z,14.16
2018-09-18T04:15:42.048Z,14.23
2018-09-18T04:16:50.691Z,14.19
2018-09-18T04:17:59.338Z,14.08
2018-09-18T04:19:07.985Z,14.16
2018-09-18T04:20:16.628Z,14.05
2018-09-18T04:21:25.533Z,14.13
2018-09-18T04:22:34.175Z,14.07
2018-09-18T04:23:42.822Z,14.11
2018-09-18T04:24:51.729Z,14
2018-09-18T04:26:00.637Z,14.04
2018-09-18T04:27:09.541Z,14.03
2018-09-18T04:28:18.193Z,14.05
2018-09-18T04:29:26.837Z,13.97
2018-09-18T04:30:35.482Z,13.93
2018-09-18T04:31:44.125Z,14
2018-09-18T04:32:52.767Z,13.91
2018-09-18T04:34:01.414Z,13.85
2018-09-18T04:35:10.337Z,13.82
2018-09-18T04:36:18.982Z,13.79
2018-09-18T04:37:27.621Z,13.91
2018-09-18T04:38:36.535Z,13.82
2018-09-18T04:39:45.448Z,13.76
2018-09-18T04:40:54.093Z,13.75
2018-09-18T04:42:03.006Z,13.78
2018-09-18T04:43:11.646Z,13.71
2018-09-18T04:44:20.291Z,13.71
2018-09-18T04:45:28.935Z,13.64
2018-09-18T04:46:37.844Z,13.7
2018-09-18T04:47:46.487Z,13.62
2018-09-18T04:48:55.138Z,13.57
2018-09-18T04:50:04.046Z,13.61
2018-09-18T04:51:12.686Z,13.6
2018-09-18T04:52:21.342Z,13.52
2018-09-18T04:53:30.264Z,13.57
2018-09-18T04:54:38.915Z,13.46
2018-09-18T04:55:47.819Z,13.45
2018-09-18T04:56:56.733Z,13.37
2018-09-18T04:58:05.379Z,13.39
2018-09-18T04:59:14.029Z,13.4
2018-09-18T05:00:22.932Z,13.33
2018-09-18T05:01:31.582Z,13.31
2018-09-18T05:02:40.226Z,13.31
2018-09-18T05:03:48.872Z,13.33
2018-09-18T05:04:57.527Z,13.24
2018-09-18T05:06:06.174Z,13.24
2018-09-18T05:07:14.819Z,13.28
2018-09-18T05:08:23.462Z,13.19
2018-09-18T05:09:32.128Z,13.16
2018-09-18T05:10:40.764Z,13.13
2018-09-18T05:11:49.441Z,13.17
2018-09-18T05:12:58.084Z,13.05
2018-09-18T05:14:06.768Z,13.03
2018-09-18T05:15:16.075Z,13.13
2018-09-18T05:16:24.985Z,13.02
2018-09-18T05:17:33.629Z,13.01
2018-09-18T05:18:42.285Z,12.93
2018-09-18T05:19:50.923Z,13.01
2018-09-18T05:20:59.569Z,13.01
2018-09-18T05:22:08.481Z,12.94
2018-09-18T05:23:17.125Z,12.98
2018-09-18T05:24:25.768Z,12.93
2018-09-18T05:25:34.792Z,12.81
2018-09-18T05:26:43.708Z,12.84
2018-09-18T05:27:52.352Z,12.87
2018-09-18T05:29:01.265Z,12.86
2018-09-18T05:30:09.907Z,12.87
2018-09-18T05:31:18.551Z,12.88
2018-09-18T05:32:27.187Z,12.81
2018-09-18T05:33:35.869Z,12.88
2018-09-18T05:34:44.481Z,12.91
2018-09-18T05:35:53.127Z,12.83
2018-09-18T05:37:02.028Z,12.88
2018-09-18T05:38:10.675Z,12.98
2018-09-18T05:39:19.316Z,12.93
2018-09-18T05:40:27.965Z,13.03
2018-09-18T05:41:36.598Z,12.95
2018-09-18T05:42:45.243Z,13.05
2018-09-18T05:43:53.892Z,13.03
2018-09-18T05:45:02.796Z,13.03
2018-09-18T05:46:11.714Z,13.03
2018-09-18T05:47:20.342Z,13.13
2018-09-18T05:48:28.991Z,13.12
2018-09-18T05:49:37.629Z,13.11
2018-09-18T05:50:46.283Z,13.19
2018-09-18T05:51:55.177Z,13.28
2018-09-18T05:53:03.823Z,13.26
2018-09-18T05:54:12.461Z,13.28
2018-09-18T05:55:21.113Z,13.37
2018-09-18T05:56:29.751Z,13.4
2018-09-18T05:57:38.393Z,13.33
2018-09-18T05:58:47.034Z,13.46
2018-09-18T05:59:55.686Z,13.42
2018-09-18T06:01:04.332Z,13.49
2018-09-18T06:02:13.033Z,13.52
2018-09-18T06:03:21.614Z,13.6
2018-09-18T06:04:30.263Z,13.6
2018-09-18T06:05:38.916Z,13.58
2018-09-18T06:06:47.817Z,13.68
2018-09-18T06:07:56.467Z,13.71
2018-09-18T06:09:05.638Z,13.6
2018-09-18T06:10:14.290Z,13.64
2018-09-18T06:11:22.929Z,13.73
2018-09-18T06:12:31.701Z,13.7
2018-09-18T06:13:40.643Z,13.62
2018-09-18T06:14:49.290Z,13.75
2018-09-18T06:15:57.935Z,13.68
2018-09-18T06:17:06.591Z,13.78
2018-09-18T06:18:15.221Z,13.76
2018-09-18T06:19:23.868Z,13.7
2018-09-18T06:20:32.516Z,13.8
2018-09-18T06:21:41.159Z,13.78
2018-09-18T06:22:49.805Z,13.85
2018-09-18T06:23:58.704Z,13.82
2018-09-18T06:25:07.353Z,13.79
2018-09-18T06:26:16.059Z,13.83
2018-09-18T06:27:24.645Z,13.94
2018-09-18T06:28:33.284Z,14.01
2018-09-18T06:29:41.932Z,14.07
2018-09-18T06:30:50.573Z,14.16
2018-09-18T06:31:59.224Z,14.19
2018-09-18T06:33:07.859Z,14.28
2018-09-18T06:34:16.503Z,14.41
2018-09-18T06:35:25.145Z,14.45
2018-09-18T06:36:33.796Z,14.53
2018-09-18T06:37:42.697Z,14.61
2018-09-18T06:38:51.335Z,14.63
2018-09-18T06:39:59.980Z,14.82
2018-09-18T06:41:08.626Z,14.87
2018-09-18T06:42:17.308Z,14.9
2018-09-18T06:43:26.289Z,14.92
2018-09-18T06:44:34.935Z,15.02
2018-09-18T06:45:43.582Z,15.07
2018-09-18T06:46:52.500Z,15.15
2018-09-18T06:48:01.921Z,15.17
2018-09-18T06:49:10.899Z,15.22
2018-09-18T06:50:19.824Z,15.26
2018-09-18T06:51:28.461Z,15.29
2018-09-18T06:52:37.109Z,15.27
2018-09-18T06:53:46.035Z,15.33
2018-09-18T06:54:54.682Z,15.47
2018-09-18T06:56:03.324Z,15.47
2018-09-18T06:57:11.970Z,15.55
2018-09-18T06:58:20.613Z,15.57
2018-09-18T06:59:29.256Z,15.65
2018-09-18T07:00:37.905Z,15.65
2018-09-18T07:01:46.549Z,15.78
2018-09-18T07:02:55.197Z,15.84
2018-09-18T07:04:03.838Z,15.96
2018-09-18T07:05:12.487Z,16.06
2018-09-18T07:06:21.392Z,16.16
2018-09-18T07:07:30.303Z,16.12
2018-09-18T07:08:39.480Z,16.28
2018-09-18T07:09:48.131Z,16.34
2018-09-18T07:10:56.778Z,16.39
2018-09-18T07:12:05.462Z,16.46
2018-09-18T07:13:14.101Z,16.49
2018-09-18T07:14:22.754Z,16.69
2018-09-18T07:15:31.665Z,16.65
2018-09-18T07:16:40.313Z,16.69
2018-09-18T07:17:48.959Z,16.77
2018-09-18T07:18:57.601Z,16.89
2018-09-18T07:20:06.244Z,17.02
2018-09-18T07:21:14.891Z,17.07
2018-09-18T07:22:23.540Z,17.14
2018-09-18T07:23:32.181Z,17.13
2018-09-18T07:24:40.853Z,17.28
2018-09-18T07:25:49.776Z,17.35
2018-09-18T07:26:58.429Z,17.44
2018-09-18T07:28:07.072Z,17.41
2018-09-18T07:29:15.738Z,17.5
2018-09-18T07:30:24.364Z,17.57
2018-09-18T07:31:33.015Z,17.65
2018-09-18T07:32:41.927Z,17.69
2018-09-18T07:33:50.662Z,17.75
2018-09-18T07:34:59.219Z,17.79
2018-09-18T07:36:07.907Z,17.82
2018-09-18T07:37:16.512Z,17.93
2018-09-18T07:38:25.422Z,18.08
2018-09-18T07:39:34.071Z,18.11
2018-09-18T07:40:42.708Z,18.24
2018-09-18T07:41:51.364Z,18.28
2018-09-18T07:43:00.008Z,18.41
2018-09-18T07:44:08.921Z,18.57
2018-09-18T07:45:17.555Z,18.55
2018-09-18T07:46:26.210Z,18.7
2018-09-18T07:47:35.387Z,18.73
2018-09-18T07:48:44.041Z,18.86
2018-09-18T07:49:52.944Z,18.98
2018-09-18T07:51:01.592Z,19
2018-09-18T07:52:10.289Z,19.16
2018-09-18T07:53:18.896Z,19.15
2018-09-18T07:54:27.545Z,19.24
2018-09-18T07:55:36.184Z,19.15
2018-09-18T07:56:45.095Z,19.19
2018-09-18T07:57:53.737Z,19.39
2018-09-18T07:59:02.655Z,19.49
2018-09-18T08:00:11.293Z,19.57
2018-09-18T08:01:19.949Z,19.71
2018-09-18T08:02:28.589Z,19.71
2018-09-18T08:03:37.244Z,19.84
2018-09-18T08:04:45.884Z,19.96
2018-09-18T08:05:54.534Z,19.93
2018-09-18T08:07:03.437Z,20.04
2018-09-18T08:08:12.092Z,20.12
2018-09-18T08:09:20.740Z,20.1
2018-09-18T08:10:29.641Z,20.19
2018-09-18T08:11:38.286Z,20.32
2018-09-18T08:12:46.931Z,20.42
2018-09-18T08:13:55.852Z,20.53
2018-09-18T08:15:04.498Z,20.53
2018-09-18T08:16:13.413Z,20.58
2018-09-18T08:17:22.051Z,20.78
2018-09-18T08:18:30.708Z,20.89
2018-09-18T08:19:39.441Z,21.01
2018-09-18T08:20:48.000Z,21.17
2018-09-18T08:21:56.645Z,21.26
2018-09-18T08:23:05.299Z,21.35
2018-09-18T08:24:13.944Z,21.44
2018-09-18T08:25:22.758Z,21.45
2018-09-18T08:26:31.237Z,21.59
2018-09-18T08:27:39.884Z,21.65
2018-09-18T08:28:48.536Z,21.68
2018-09-18T08:29:57.185Z,21.75
2018-09-18T08:31:06.100Z,21.89
2018-09-18T08:32:14.744Z,21.89
2018-09-18T08:33:23.396Z,22.01
2018-09-18T08:34:32.040Z,22.04
2018-09-18T08:35:40.701Z,22.12
2018-09-18T08:36:49.611Z,22.15
2018-09-18T08:37:58.255Z,22.18
2018-09-18T08:39:06.916Z,22.25
2018-09-18T08:40:15.569Z,22.4
2018-09-18T08:41:24.533Z,22.49
2018-09-18T08:42:33.474Z,22.58
2018-09-18T08:43:42.095Z,22.73
2018-09-18T08:44:50.738Z,22.84
2018-09-18T08:45:59.651Z,22.88
2018-09-18T08:47:08.305Z,23.01
2018-09-18T08:48:16.956Z,22.92
2018-09-18T08:49:25.630Z,23.04
2018-09-18T08:50:34.245Z,23.11
2018-09-18T08:51:42.939Z,23.16
2018-09-18T08:52:52.282Z,23.28
2018-09-18T08:54:00.944Z,23.2
2018-09-18T08:55:09.586Z,23.45
2018-09-18T08:56:18.230Z,23.42
2018-09-18T08:57:27.140Z,23.58
2018-09-18T08:58:36.067Z,23.48
2018-09-18T08:59:44.995Z,23.63
2018-09-18T09:00:53.647Z,23.62
2018-09-18T09:02:02.292Z,23.73
2018-09-18T09:03:10.973Z,23.86
2018-09-18T09:04:20.046Z,23.94
2018-09-18T09:05:28.953Z,23.94
2018-09-18T09:06:37.676Z,24.04
2018-09-18T09:07:47.150Z,24.22
2018-09-18T09:08:55.973Z,24.26
2018-09-18T09:10:04.393Z,24.32
2018-09-18T09:11:13.019Z,24.43
2018-09-18T09:12:21.680Z,24.36
2018-09-18T09:13:30.592Z,24.47
2018-09-18T09:14:39.300Z,24.65
2018-09-18T09:15:47.909Z,24.66
2018-09-18T09:16:56.522Z,24.75
2018-09-18T09:18:05.269Z,24.65
2018-09-18T09:19:13.834Z,24.74
2018-09-18T09:20:22.772Z,24.79
2018-09-18T09:21:31.407Z,24.93
2018-09-18T09:22:40.110Z,24.88
2018-09-18T09:23:48.720Z,25.01
2018-09-18T09:24:57.374Z,25.04
2018-09-18T09:26:06.037Z,25.11
2018-09-18T09:27:14.968Z,25.19
2018-09-18T09:28:23.649Z,25.09
2018-09-18T09:29:32.270Z,25.21
2018-09-18T09:30:40.931Z,25.14
2018-09-18T09:31:49.573Z,25.33
2018-09-18T09:32:58.243Z,25.31
2018-09-18T09:34:07.160Z,25.31
2018-09-18T09:35:15.808Z,25.36
2018-09-18T09:36:24.474Z,25.46
2018-09-18T09:37:33.131Z,25.46
2018-09-18T09:38:41.843Z,25.63
2018-09-18T09:39:50.789Z,25.77
2018-09-18T09:40:59.698Z,25.8
2018-09-18T09:42:08.350Z,25.8
2018-09-18T09:43:17.006Z,25.93
2018-09-18T09:44:25.659Z,25.93
2018-09-18T09:45:34.306Z,25.98
2018-09-18T09:46:43.225Z,26.07
2018-09-18T09:47:51.876Z,26.16
2018-09-18T09:49:00.787Z,26.26
2018-09-18T09:50:09.716Z,26.31
2018-09-18T09:51:18.394Z,26.39
2018-09-18T09:52:27.018Z,26.37
2018-09-18T09:53:35.659Z,26.53
2018-09-18T09:54:44.314Z,26.61
2018-09-18T09:55:52.964Z,26.7
2018-09-18T09:57:01.648Z,26.63
2018-09-18T09:58:10.265Z,26.71
2018-09-18T09:59:18.920Z,26.86
2018-09-18T10:00:27.574Z,26.82
2018-09-18T10:01:36.225Z,26.98
2018-09-18T10:02:44.939Z,27.01
2018-09-18T10:03:53.712Z,27.16
2018-09-18T10:05:02.562Z,27.16
2018-09-18T10:06:11.218Z,27.25
2018-09-18T10:07:19.874Z,27.38
2018-09-18T10:08:28.520Z,27.4
2018-09-18T10:09:37.432Z,27.43
2018-09-18T10:10:46.295Z,27.37
2018-09-18T10:11:55.325Z,27.45
2018-09-18T10:13:04.254Z,27.48
2018-09-18T10:14:12.923Z,27.53
2018-09-18T10:15:21.935Z,27.58
2018-09-18T10:16:30.597Z,27.64
2018-09-18T10:17:39.289Z,27.58
2018-09-18T10:18:47.897Z,27.53
2018-09-18T10:19:56.547Z,27.57
2018-09-18T10:21:05.198Z,27.63
2018-09-18T10:22:13.860Z,27.68
2018-09-18T10:23:22.508Z,27.66
2018-09-18T10:24:31.161Z,27.75
2018-09-18T10:25:39.807Z,27.75
2018-09-18T10:26:48.538Z,27.76
2018-09-18T10:27:57.551Z,27.68
2018-09-18T10:29:06.249Z,27.81
2018-09-18T10:30:14.859Z,27.95
2018-09-18T10:31:23.517Z,28.03
2018-09-18T10:32:32.188Z,27.98
2018-09-18T10:33:40.837Z,28.08
2018-09-18T10:34:49.476Z,28.09
2018-09-18T10:35:58.389Z,28.18
2018-09-18T10:37:07.601Z,28.15
2018-09-18T10:38:16.278Z,28.18
2018-09-18T10:39:25.262Z,28.28
2018-09-18T10:40:33.841Z,28.28
2018-09-18T10:41:42.560Z,28.22
2018-09-18T10:42:51.237Z,28.38
2018-09-18T10:43:59.825Z,28.37
2018-09-18T10:45:08.462Z,28.43
2018-09-18T10:46:17.416Z,28.49
2018-09-18T10:47:26.148Z,28.62
2018-09-18T10:48:34.741Z,28.59
2018-09-18T10:49:43.374Z,28.67
2018-09-18T10:50:52.027Z,28.65
2018-09-18T10:52:00.677Z,28.64
2018-09-18T10:53:09.338Z,28.59
2018-09-18T10:54:17.987Z,28.56
2018-09-18T10:55:27.109Z,28.55
2018-09-18T10:56:35.679Z,28.65
2018-09-18T10:57:44.335Z,28.62
2018-09-18T10:58:53.335Z,28.68
2018-09-18T11:00:02.025Z,28.64
2018-09-18T11:01:10.909Z,28.7
2018-09-18T11:02:19.627Z,28.7
2018-09-18T11:03:28.255Z,28.7
2018-09-18T11:04:36.990Z,28.74
2018-09-18T11:05:45.729Z,28.77
2018-09-18T11:06:54.513Z,28.86
2018-09-18T11:08:04.460Z,29.03
2018-09-18T11:09:14.562Z,28.89
2018-09-18T11:10:24.375Z,28.87
2018-09-18T11:11:33.997Z,28.96
2018-09-18T11:12:42.962Z,28.97
2018-09-18T11:13:51.657Z,28.93
2018-09-18T11:15:00.308Z,29.02
2018-09-18T11:16:09.772Z,29.05
2018-09-18T11:17:18.309Z,29
2018-09-18T11:18:27.371Z,29.05
2018-09-18T11:19:36.900Z,29
2018-09-18T11:20:47.050Z,29.03
2018-09-18T11:21:56.793Z,28.96
2018-09-18T11:23:06.235Z,29.02
2018-09-18T11:24:17.125Z,28.93
2018-09-18T11:25:28.261Z,28.97
2018-09-18T11:26:37.404Z,28.86
2018-09-18T11:27:48.395Z,29
2018-09-18T11:28:57.662Z,29.02
2018-09-18T11:30:07.138Z,29.06
2018-09-18T11:31:17.019Z,29.18
2018-09-18T11:32:26.655Z,29.22
2018-09-18T11:33:36.736Z,29.27
2018-09-18T11:34:46.295Z,29.24
2018-09-18T11:35:55.499Z,29.28
2018-09-18T11:37:04.865Z,29.25
2018-09-18T11:38:14.450Z,29.3
2018-09-18T11:39:24.331Z,29.22
2018-09-18T11:40:33.939Z,29.25
2018-09-18T11:41:43.271Z,29.3
2018-09-18T11:42:52.599Z,29.27
2018-09-18T11:44:02.171Z,29.3
2018-09-18T11:45:11.737Z,29.34
2018-09-18T11:46:21.002Z,29.37
2018-09-18T11:47:30.499Z,29.4
2018-09-18T11:48:41.017Z,29.34
2018-09-18T11:49:52.107Z,29.49
2018-09-18T11:51:01.667Z,29.52
2018-09-18T11:52:11.475Z,29.55
2018-09-18T11:53:21.745Z,29.61
2018-09-18T11:54:31.510Z,29.65
2018-09-18T11:55:41.196Z,29.73
2018-09-18T11:56:50.737Z,29.71
2018-09-18T11:57:59.943Z,29.64
2018-09-18T11:59:10.241Z,29.65
2018-09-18T12:00:19.624Z,29.67
2018-09-18T12:01:29.231Z,29.67
2018-09-18T12:02:38.982Z,29.62
2018-09-18T12:03:48.645Z,29.61
2018-09-18T12:04:58.646Z,29.65
2018-09-18T12:06:08.109Z,29.73
2018-09-18T12:07:17.728Z,29.74
2018-09-18T12:08:27.342Z,29.84
2018-09-18T12:09:36.833Z,29.84
2018-09-18T12:10:46.893Z,29.81
2018-09-18T12:11:56.651Z,29.77
2018-09-18T12:13:06.329Z,29.79
2018-09-18T12:14:15.756Z,29.8
2018-09-18T12:15:25.411Z,29.84
2018-09-18T12:16:35.201Z,29.9
2018-09-18T12:17:44.915Z,29.87
2018-09-18T12:18:54.579Z,29.79
2018-09-18T12:20:05.390Z,29.84
2018-09-18T12:21:15.357Z,29.92
2018-09-18T12:22:24.695Z,29.86
2018-09-18T12:23:33.728Z,29.95
2018-09-18T12:24:42.383Z,29.94
2018-09-18T12:25:51.034Z,29.9
2018-09-18T12:26:59.965Z,29.95
2018-09-18T12:28:08.884Z,29.98
2018-09-18T12:29:17.541Z,29.95
2018-09-18T12:30:26.196Z,29.98
2018-09-18T12:31:34.847Z,29.96
2018-09-18T12:32:43.506Z,29.96
2018-09-18T12:33:52.156Z,29.89
2018-09-18T12:35:00.805Z,29.95
2018-09-18T12:36:09.464Z,29.92
2018-09-18T12:37:18.119Z,29.96
2018-09-18T12:38:26.774Z,29.89
2018-09-18T12:39:35.696Z,29.98
2018-09-18T12:40:44.613Z,29.96
2018-09-18T12:41:53.442Z,29.9
2018-09-18T12:43:01.928Z,29.96
2018-09-18T12:44:10.578Z,29.99
2018-09-18T12:45:19.236Z,30.08
2018-09-18T12:46:28.146Z,30.06
2018-09-18T12:47:36.804Z,30.03
2018-09-18T12:48:45.514Z,30.02
2018-09-18T12:49:55.136Z,30.01
2018-09-18T12:51:03.807Z,29.99
2018-09-18T12:52:12.460Z,30.01
2018-09-18T12:53:21.119Z,30.01
2018-09-18T12:54:29.767Z,29.94
2018-09-18T12:55:38.419Z,29.89
2018-09-18T12:56:47.108Z,29.92
2018-09-18T12:57:55.733Z,29.95
2018-09-18T12:59:04.860Z,29.89
2018-09-18T13:00:13.525Z,30.1
2018-09-18T13:01:22.181Z,30.05
2018-09-18T13:02:30.828Z,30.08
2018-09-18T13:03:39.482Z,30.1
2018-09-18T13:04:48.421Z,30.03
2018-09-18T13:05:57.133Z,30.1
2018-09-18T13:07:05.857Z,30.06
2018-09-18T13:08:14.631Z,30.03
2018-09-18T13:09:23.061Z,30.05
2018-09-18T13:10:31.718Z,30.05
2018-09-18T13:11:40.367Z,30.13
2018-09-18T13:12:49.031Z,30.14
2018-09-18T13:13:57.753Z,30.11
2018-09-18T13:15:06.339Z,30.2
2018-09-18T13:16:15.009Z,30.11
2018-09-18T13:17:23.681Z,30.21
2018-09-18T13:18:32.645Z,30.21
2018-09-18T13:19:41.303Z,30.21
2018-09-18T13:20:50.027Z,30.18
2018-09-18T13:21:58.992Z,30.24
2018-09-18T13:23:07.631Z,30.03
2018-09-18T13:24:16.285Z,30.02
2018-09-18T13:25:25.207Z,29.99
2018-09-18T13:26:34.122Z,30.03
2018-09-18T13:27:42.844Z,30.03
2018-09-18T13:28:51.440Z,30.06
2018-09-18T13:30:00.368Z,30.16
2018-09-18T13:31:09.330Z,30.16
2018-09-18T13:32:18.012Z,30.02
2018-09-18T13:33:26.635Z,30.05
2018-09-18T13:34:35.300Z,29.99
2018-09-18T13:35:43.981Z,30.05
2018-09-18T13:36:52.602Z,30.08
2018-09-18T13:38:01.255Z,29.99
2018-09-18T13:39:09.920Z,30.06
2018-09-18T13:40:18.571Z,30.1
2018-09-18T13:41:27.243Z,30.06
2018-09-18T13:42:36.151Z,30.13
2018-09-18T13:43:44.805Z,30.08
2018-09-18T13:44:53.470Z,30.03
2018-09-18T13:46:02.123Z,29.9
2018-09-18T13:47:10.783Z,29.98
2018-09-18T13:48:19.432Z,29.9
2018-09-18T13:49:28.095Z,29.92
2018-09-18T13:50:36.745Z,29.9
2018-09-18T13:51:45.523Z,29.94
2018-09-18T13:52:54.052Z,29.87
2018-09-18T13:54:02.976Z,29.9
2018-09-18T13:55:11.632Z,29.89
2018-09-18T13:56:20.396Z,29.99
2018-09-18T13:57:29.015Z,29.96
2018-09-18T13:58:37.596Z,29.92
2018-09-18T13:59:46.253Z,29.95
2018-09-18T14:00:54.907Z,29.98
2018-09-18T14:02:03.873Z,30.08
2018-09-18T14:03:12.498Z,30.03
2018-09-18T14:04:21.533Z,30.03
2018-09-18T14:05:30.479Z,30.05
2018-09-18T14:06:39.134Z,30.11
2018-09-18T14:07:47.780Z,30.14
2018-09-18T14:08:56.719Z,30.05
2018-09-18T14:10:05.896Z,30.03
2018-09-18T14:11:14.557Z,29.89
2018-09-18T14:12:23.202Z,29.9
2018-09-18T14:13:31.859Z,29.92
2018-09-18T14:14:40.867Z,29.87
2018-09-18T14:15:49.485Z,29.89
2018-09-18T14:16:58.136Z,29.9
2018-09-18T14:18:07.056Z,29.92
2018-09-18T14:19:15.708Z,29.95
2018-09-18T14:20:24.413Z,29.89
2018-09-18T14:21:33.418Z,29.79
2018-09-18T14:22:42.339Z,29.67
2018-09-18T14:23:51.267Z,29.69
2018-09-18T14:25:00.177Z,29.76
2018-09-18T14:26:09.120Z,29.79
2018-09-18T14:27:18.054Z,29.79
2018-09-18T14:28:26.714Z,29.77
2018-09-18T14:29:35.361Z,29.92
2018-09-18T14:30:44.027Z,29.89
2018-09-18T14:31:52.937Z,29.95
2018-09-18T14:33:01.594Z,30.03
2018-09-18T14:34:10.241Z,30.03
2018-09-18T14:35:19.157Z,30.1
2018-09-18T14:36:27.818Z,30.03
2018-09-18T14:37:36.472Z,29.9
2018-09-18T14:38:45.130Z,29.8
2018-09-18T14:39:53.781Z,29.81
2018-09-18T14:41:02.704Z,29.81
2018-09-18T14:42:11.355Z,29.77
2018-09-18T14:43:20.018Z,29.73
2018-09-18T14:44:28.662Z,29.79
2018-09-18T14:45:37.335Z,29.79
2018-09-18T14:46:46.284Z,29.84
2018-09-18T14:47:54.951Z,29.9
2018-09-18T14:49:03.859Z,29.87
2018-09-18T14:50:12.517Z,29.94